createdAt,value
2023-05-13T00:04:20.212Z,14.03
2023-05-13T00:09:18.591Z,13.86
2023-05-13T00:14:22.624Z,14.05
2023-05-13T00:19:39.052Z,13.71
2023-05-13T00:24:39.417Z,13.85
2023-05-13T00:30:00.907Z,13.85
2023-05-13T00:35:05.081Z,13.39
2023-05-13T00:40:11.855Z,13.79
2023-05-13T00:45:12.874Z,13.67
2023-05-13T00:50:16.906Z,13.33
2023-05-13T00:55:22.355Z,13.35
2023-05-13T01:00:23.770Z,13.29
2023-05-13T01:05:33.179Z,13.16
2023-05-13T01:10:38.757Z,12.77
2023-05-13T01:15:41.761Z,12.62
2023-05-13T01:20:48.443Z,12.68
2023-05-13T01:25:53.274Z,12.57
2023-05-13T01:30:58.658Z,12.87
2023-05-13T01:36:02.969Z,12.83
2023-05-13T01:41:03.241Z,12.65
2023-05-13T01:46:05.976Z,12.56
2023-05-13T01:51:07.878Z,12.26
2023-05-13T01:56:09.722Z,12.34
2023-05-13T02:01:12.821Z,12.48
2023-05-13T02:06:13.042Z,12.41
2023-05-13T02:11:11.655Z,12.81
2023-05-13T02:16:14.707Z,12.80
2023-05-13T02:21:12.121Z,13.14
2023-05-13T02:26:26.515Z,12.97
2023-05-13T02:31:32.672Z,13.09
2023-05-13T02:36:42.435Z,13.22
2023-05-13T02:41:58.536Z,13.04
2023-05-13T02:47:03.706Z,13.00
2023-05-13T02:52:10.693Z,13.09
2023-05-13T02:57:16.682Z,13.27
2023-05-13T03:02:32.385Z,12.84
2023-05-13T03:07:46.223Z,13.04
2023-05-13T03:12:52.830Z,12.59
2023-05-13T03:18:02.530Z,12.60
2023-05-13T03:23:05.650Z,12.55
2023-05-13T03:28:19.636Z,12.80
2023-05-13T03:33:26.745Z,13.13
2023-05-13T03:38:36.618Z,13.06
2023-05-13T03:43:45.830Z,13.26
2023-05-13T03:48:46.679Z,13.45
2023-05-13T03:53:52.982Z,13.36
2023-05-13T03:58:58.021Z,13.62
2023-05-13T04:04:10.780Z,14.05
2023-05-13T04:09:14.402Z,14.01
2023-05-13T04:14:21.680Z,14.83
2023-05-13T04:19:32.596Z,15.37
2023-05-13T04:29:53.535Z,16.63
2023-05-13T04:34:55.088Z,16.71
2023-05-13T04:40:02.300Z,16.62
2023-05-13T04:45:11.659Z,16.62
2023-05-13T04:50:32.872Z,16.24
2023-05-13T04:55:39.617Z,16.14
2023-05-13T05:00:42.987Z,16.22
2023-05-13T05:05:48.232Z,16.79
2023-05-13T05:10:53.801Z,17.12
2023-05-13T05:16:12.155Z,17.45
2023-05-13T05:21:33.304Z,18.00
2023-05-13T05:26:32.021Z,18.14
2023-05-13T05:31:40.873Z,19.50
2023-05-13T05:36:52.145Z,20.61
2023-05-13T05:42:11.371Z,22.43
2023-05-13T05:47:27.475Z,22.22
2023-05-13T05:52:28.390Z,21.69
2023-05-13T05:57:29.181Z,22.77
2023-05-13T06:02:34.003Z,24.56
2023-05-13T06:08:04.627Z,25.18
2023-05-13T06:13:10.773Z,24.85
2023-05-13T06:18:13.956Z,24.77
2023-05-13T06:23:49.060Z,24.64
2023-05-13T06:29:03.716Z,24.39
2023-05-13T06:34:45.779Z,24.38
2023-05-13T06:40:14.654Z,24.08
2023-05-13T06:47:08.238Z,24.28
2023-05-13T06:59:23.566Z,25.86
2023-05-13T07:04:43.666Z,26.62
2023-05-13T07:16:17.943Z,26.80
2023-05-13T07:21:33.953Z,28.90
2023-05-13T07:27:30.926Z,30.59
2023-05-13T07:33:20.886Z,30.70
2023-05-13T07:38:40.613Z,30.72
2023-05-13T07:43:55.680Z,29.82
2023-05-13T07:49:01.299Z,28.67
2023-05-13T07:54:07.712Z,27.65
2023-05-13T07:59:07.642Z,27.60
2023-05-13T08:04:05.542Z,28.07
2023-05-13T08:09:13.844Z,28.32
2023-05-13T08:19:49.112Z,27.76
2023-05-13T08:24:48.205Z,27.06
2023-05-13T08:29:50.850Z,26.54
2023-05-13T08:34:57.804Z,26.04
2023-05-13T08:40:08.783Z,25.85
2023-05-13T08:45:15.167Z,25.40
2023-05-13T08:50:23.298Z,24.42
2023-05-13T09:02:54.460Z,23.76
2023-05-13T13:45:34.333Z,20.51
2023-05-13T13:51:52.690Z,21.04
2023-05-13T14:09:17.743Z,20.56
2023-05-13T14:15:21.637Z,20.52
2023-05-13T14:33:37.689Z,20.21
2023-05-13T14:46:57.679Z,19.87
2023-05-13T14:53:05.220Z,19.89
2023-05-13T14:59:16.018Z,20.39
2023-05-13T15:05:29.361Z,20.09
2023-05-13T15:10:59.707Z,20.22
2023-05-13T15:16:25.079Z,19.84
2023-05-13T15:21:59.140Z,19.58
2023-05-13T15:27:42.996Z,20.24
2023-05-13T15:33:27.140Z,19.53
2023-05-13T15:39:33.574Z,19.78
2023-05-13T15:45:53.441Z,19.67
2023-05-13T15:58:08.403Z,20.00
2023-05-13T16:10:04.797Z,19.79
2023-05-13T16:15:45.447Z,19.94
2023-05-13T16:27:41.267Z,19.10
2023-05-13T16:33:21.784Z,19.21
2023-05-13T16:38:59.257Z,19.02
2023-05-13T16:59:01.193Z,18.56
2023-05-13T17:11:28.854Z,18.76
2023-05-13T17:30:55.217Z,17.56
2023-05-13T17:36:17.739Z,17.35
2023-05-13T17:49:32.594Z,17.69
2023-05-13T17:54:32.257Z,17.52
2023-05-13T17:59:31.836Z,17.15
2023-05-13T18:04:29.373Z,17.11
2023-05-13T18:09:26.215Z,16.85
2023-05-13T18:14:23.229Z,17.05
2023-05-13T18:19:20.082Z,16.81
2023-05-13T18:24:17.594Z,16.55
2023-05-13T18:29:14.446Z,16.52
2023-05-13T18:34:11.181Z,16.44
2023-05-13T18:39:09.253Z,16.58
2023-05-13T18:44:07.107Z,16.12
2023-05-13T18:49:04.134Z,16.12
2023-05-13T18:54:01.154Z,15.97
2023-05-13T18:58:58.069Z,16.14
2023-05-13T19:03:56.573Z,15.87
2023-05-13T19:08:53.459Z,15.77
2023-05-13T19:13:50.232Z,16.00
2023-05-13T19:18:47.230Z,15.77
2023-05-13T19:23:44.882Z,15.87
2023-05-13T19:28:43.162Z,15.69
2023-05-13T19:33:40.441Z,15.75
2023-05-13T19:38:37.374Z,15.69
2023-05-13T19:43:35.182Z,15.33
2023-05-13T19:48:31.981Z,15.30
2023-05-13T19:53:28.780Z,15.21
2023-05-13T19:58:25.598Z,15.20
2023-05-13T20:03:23.110Z,15.28
2023-05-13T20:08:20.522Z,15.22
2023-05-13T20:13:17.351Z,15.05
2023-05-13T20:18:14.105Z,15.07
2023-05-13T20:23:13.773Z,14.97
2023-05-13T20:28:11.298Z,14.83
2023-05-13T20:33:08.217Z,14.69
2023-05-13T20:38:05.271Z,14.71
2023-05-13T20:43:02.857Z,14.64
2023-05-13T20:48:00.545Z,14.61
2023-05-13T20:52:57.512Z,14.64
2023-05-13T20:57:54.335Z,14.54
2023-05-13T21:02:52.470Z,14.28
2023-05-13T21:07:49.337Z,14.15
2023-05-13T21:12:47.394Z,14.31
2023-05-13T21:17:44.283Z,14.33
2023-05-13T21:22:41.760Z,14.27
2023-05-13T21:27:38.569Z,14.14
2023-05-13T21:32:35.489Z,13.78
2023-05-13T21:37:32.271Z,13.50
2023-05-13T21:42:30.310Z,13.74
2023-05-13T21:47:28.890Z,13.65
2023-05-13T21:52:25.689Z,13.59
2023-05-13T21:57:22.411Z,13.39
2023-05-13T22:02:20.006Z,13.25
2023-05-13T22:07:17.079Z,13.30
2023-05-13T22:12:13.882Z,13.38
2023-05-13T22:17:10.929Z,13.28
2023-05-13T22:22:08.524Z,12.83
2023-05-13T22:27:05.691Z,13.15
2023-05-13T22:32:02.875Z,13.03
2023-05-13T22:37:02.056Z,13.13
2023-05-13T22:41:59.567Z,13.27
2023-05-13T22:46:56.419Z,12.94
2023-05-13T22:51:53.237Z,13.12
2023-05-13T22:56:49.984Z,13.08
2023-05-13T23:01:48.175Z,12.69
2023-05-13T23:06:44.989Z,12.85
2023-05-13T23:11:41.832Z,12.81
2023-05-13T23:16:38.821Z,12.86
2023-05-13T23:21:36.740Z,13.15
2023-05-13T23:26:33.452Z,13.03
2023-05-13T23:31:30.250Z,13.37
2023-05-13T23:36:27.181Z,13.12
2023-05-13T23:41:24.655Z,12.90
2023-05-13T23:46:21.488Z,12.56
2023-05-13T23:51:18.468Z,12.76
2023-05-13T23:56:15.275Z,12.25
